sensor_id;sensor_type;location;lat;lon;timestamp;pressure;altitude;pressure_sealevel;temperature;humidity
967;BME280;56108;48.730;9.304;2023-07-13T00:02:09;97499.38;;;19.30;70.03
967;BME280;56108;48.730;9.304;2023-07-13T00:04:19;97504.19;;;19.10;71.81
967;BME280;56108;48.730;9.304;2023-07-13T00:06:27;97502.19;;;19.12;70.83
967;BME280;56108;48.730;9.304;2023-07-13T00:08:40;97509.22;;;19.05;71.10
967;BME280;56108;48.730;9.304;2023-07-13T00:10:48;97509.94;;;19.07;70.88
967;BME280;56108;48.730;9.304;2023-07-13T00:12:59;97504.53;;;19.07;70.99
967;BME280;56108;48.730;9.304;2023-07-13T00:15:12;97509.22;;;19.05;71.58
967;BME280;56108;48.730;9.304;2023-07-13T00:17:21;97510.78;;;19.08;70.36
967;BME280;56108;48.730;9.304;2023-07-13T00:19:29;97504.84;;;19.04;69.85
967;BME280;56108;48.730;9.304;2023-07-13T00:21:37;97500.66;;;19.10;70.29
967;BME280;56108;48.730;9.304;2023-07-13T00:23:48;97497.59;;;18.96;70.54
967;BME280;56108;48.730;9.304;2023-07-13T00:25:57;97499.22;;;18.89;72.58
967;BME280;56108;48.730;9.304;2023-07-13T00:28:05;97500.09;;;18.98;69.41
967;BME280;56108;48.730;9.304;2023-07-13T00:30:14;97498.53;;;18.87;70.74
967;BME280;56108;48.730;9.304;2023-07-13T00:32:22;97500.41;;;18.87;70.75
967;BME280;56108;48.730;9.304;2023-07-13T00:34:31;97499.88;;;18.83;72.71
967;BME280;56108;48.730;9.304;2023-07-13T00:36:39;97509.53;;;18.94;72.01
967;BME280;56108;48.730;9.304;2023-07-13T00:38:49;97517.47;;;18.95;71.01
967;BME280;56108;48.730;9.304;2023-07-13T00:40:58;97518.63;;;18.93;70.54
967;BME280;56108;48.730;9.304;2023-07-13T00:43:09;97518.25;;;18.88;70.48
967;BME280;56108;48.730;9.304;2023-07-13T00:47:57;97511.78;;;18.72;71.38
967;BME280;56108;48.730;9.304;2023-07-13T00:50:07;97515.47;;;18.71;70.51
967;BME280;56108;48.730;9.304;2023-07-13T00:52:16;97516.72;;;18.59;72.31
967;BME280;56108;48.730;9.304;2023-07-13T00:54:29;97523.72;;;18.52;72.30
967;BME280;56108;48.730;9.304;2023-07-13T00:56:40;97523.06;;;18.50;72.56
967;BME280;56108;48.730;9.304;2023-07-13T00:58:49;97517.09;;;18.38;71.83
967;BME280;56108;48.730;9.304;2023-07-13T01:00:58;97518.19;;;18.28;73.74
967;BME280;56108;48.730;9.304;2023-07-13T01:03:06;97515.63;;;18.26;74.13
967;BME280;56108;48.730;9.304;2023-07-13T01:05:16;97520.34;;;18.24;72.33
967;BME280;56108;48.730;9.304;2023-07-13T01:07:25;97526.66;;;18.33;72.00
967;BME280;56108;48.730;9.304;2023-07-13T01:09:33;97512.72;;;18.19;72.36
967;BME280;56108;48.730;9.304;2023-07-13T01:11:42;97509.81;;;18.13;72.77
967;BME280;56108;48.730;9.304;2023-07-13T01:13:50;97516.13;;;18.04;73.27
967;BME280;56108;48.730;9.304;2023-07-13T01:16:03;97512.84;;;17.92;74.33
967;BME280;56108;48.730;9.304;2023-07-13T01:18:17;97523.59;;;17.92;75.23
967;BME280;56108;48.730;9.304;2023-07-13T01:20:26;97518.53;;;17.89;74.45
967;BME280;56108;48.730;9.304;2023-07-13T01:22:37;97518.53;;;17.89;73.34
967;BME280;56108;48.730;9.304;2023-07-13T01:24:47;97521.31;;;17.97;73.97
967;BME280;56108;48.730;9.304;2023-07-13T01:26:55;97527.53;;;17.97;73.75
967;BME280;56108;48.730;9.304;2023-07-13T01:29:03;97525.38;;;17.83;74.00
967;BME280;56108;48.730;9.304;2023-07-13T01:31:15;97522.84;;;17.82;74.29
967;BME280;56108;48.730;9.304;2023-07-13T01:33:24;97532.06;;;17.79;74.87
967;BME280;56108;48.730;9.304;2023-07-13T01:35:34;97526.03;;;17.85;74.52
967;BME280;56108;48.730;9.304;2023-07-13T01:37:44;97523.28;;;17.77;74.93
967;BME280;56108;48.730;9.304;2023-07-13T01:39:53;97519.75;;;17.77;75.00
967;BME280;56108;48.730;9.304;2023-07-13T01:42:01;97519.41;;;17.62;74.52
967;BME280;56108;48.730;9.304;2023-07-13T01:44:09;97518.00;;;17.58;74.58
967;BME280;56108;48.730;9.304;2023-07-13T01:46:18;97519.31;;;17.54;74.73
967;BME280;56108;48.730;9.304;2023-07-13T01:48:28;97525.63;;;17.62;75.09
967;BME280;56108;48.730;9.304;2023-07-13T01:50:38;97517.94;;;17.50;76.22
967;BME280;56108;48.730;9.304;2023-07-13T01:52:49;97520.25;;;17.44;76.00
967;BME280;56108;48.730;9.304;2023-07-13T01:54:57;97529.66;;;17.31;76.42
967;BME280;56108;48.730;9.304;2023-07-13T01:57:05;97530.59;;;17.39;75.90
967;BME280;56108;48.730;9.304;2023-07-13T01:59:13;97529.53;;;17.22;78.00
967;BME280;56108;48.730;9.304;2023-07-13T02:01:21;97532.44;;;17.11;77.67
967;BME280;56108;48.730;9.304;2023-07-13T02:03:32;97527.00;;;17.21;78.16
967;BME280;56108;48.730;9.304;2023-07-13T02:05:38;97530.59;;;17.12;76.53
967;BME280;56108;48.730;9.304;2023-07-13T02:07:49;97526.41;;;17.00;77.45
967;BME280;56108;48.730;9.304;2023-07-13T02:09:57;97536.44;;;17.07;78.20
967;BME280;56108;48.730;9.304;2023-07-13T02:12:07;97533.56;;;17.18;78.38
967;BME280;56108;48.730;9.304;2023-07-13T02:14:15;97530.53;;;17.21;78.96
967;BME280;56108;48.730;9.304;2023-07-13T02:16:23;97530.72;;;17.20;79.20
967;BME280;56108;48.730;9.304;2023-07-13T02:18:32;97530.88;;;17.18;80.11
967;BME280;56108;48.730;9.304;2023-07-13T02:20:40;97531.88;;;17.17;79.52
967;BME280;56108;48.730;9.304;2023-07-13T02:22:50;97536.13;;;17.10;81.11
967;BME280;56108;48.730;9.304;2023-07-13T02:24:59;97541.28;;;16.94;82.21
967;BME280;56108;48.730;9.304;2023-07-13T02:27:07;97540.91;;;16.89;82.66
967;BME280;56108;48.730;9.304;2023-07-13T02:29:15;97534.25;;;16.83;86.05
967;BME280;56108;48.730;9.304;2023-07-13T02:31:23;97535.38;;;16.81;87.46
967;BME280;56108;48.730;9.304;2023-07-13T02:33:31;97537.97;;;16.73;87.34
967;BME280;56108;48.730;9.304;2023-07-13T02:35:39;97534.09;;;16.85;86.65
967;BME280;56108;48.730;9.304;2023-07-13T02:37:50;97539.91;;;16.80;87.67
967;BME280;56108;48.730;9.304;2023-07-13T02:39:58;97539.06;;;16.80;87.58
967;BME280;56108;48.730;9.304;2023-07-13T02:42:09;97540.66;;;16.82;88.22
967;BME280;56108;48.730;9.304;2023-07-13T02:44:17;97541.91;;;16.68;90.09
967;BME280;56108;48.730;9.304;2023-07-13T02:46:25;97544.94;;;16.56;93.04
967;BME280;56108;48.730;9.304;2023-07-13T02:48:35;97549.31;;;16.47;94.81
967;BME280;56108;48.730;9.304;2023-07-13T02:50:44;97543.97;;;16.37;96.50
967;BME280;56108;48.730;9.304;2023-07-13T02:52:55;97538.59;;;16.28;98.92
967;BME280;56108;48.730;9.304;2023-07-13T02:55:03;97540.88;;;16.23;100.00
967;BME280;56108;48.730;9.304;2023-07-13T02:57:12;97535.50;;;16.32;100.00
967;BME280;56108;48.730;9.304;2023-07-13T02:59:20;97539.72;;;16.44;100.00
967;BME280;56108;48.730;9.304;2023-07-13T03:01:29;97538.44;;;16.39;100.00
967;BME280;56108;48.730;9.304;2023-07-13T03:03:37;97537.75;;;16.27;99.85
967;BME280;56108;48.730;9.304;2023-07-13T03:05:58;97537.06;;;16.15;100.00
967;BME280;56108;48.730;9.304;2023-07-13T03:08:16;97543.03;;;16.09;100.00
967;BME280;56108;48.730;9.304;2023-07-13T03:10:28;97549.22;;;16.10;100.00
967;BME280;56108;48.730;9.304;2023-07-13T03:12:37;97542.88;;;16.01;100.00
967;BME280;56108;48.730;9.304;2023-07-13T03:14:52;97552.50;;;15.94;100.00
967;BME280;56108;48.730;9.304;2023-07-13T03:17:00;97553.47;;;15.93;100.00
967;BME280;56108;48.730;9.304;2023-07-13T03:19:11;97555.16;;;15.94;100.00
967;BME280;56108;48.730;9.304;2023-07-13T03:21:24;97563.91;;;15.96;100.00
967;BME280;56108;48.730;9.304;2023-07-13T03:23:35;97557.56;;;15.97;100.00
967;BME280;56108;48.730;9.304;2023-07-13T03:25:44;97571.13;;;15.96;100.00
967;BME280;56108;48.730;9.304;2023-07-13T03:27:52;97557.56;;;15.97;100.00
967;BME280;56108;48.730;9.304;2023-07-13T03:30:01;97564.06;;;16.04;100.00
967;BME280;56108;48.730;9.304;2023-07-13T03:32:09;97565.47;;;16.18;100.00
967;BME280;56108;48.730;9.304;2023-07-13T03:34:17;97568.03;;;16.20;100.00
967;BME280;56108;48.730;9.304;2023-07-13T03:36:28;97577.63;;;16.22;100.00
967;BME280;56108;48.730;9.304;2023-07-13T03:38:44;97571.81;;;16.27;100.00
967;BME280;56108;48.730;9.304;2023-07-13T03:40:55;97576.34;;;16.36;100.00
967;BME280;56108;48.730;9.304;2023-07-13T03:43:03;97573.78;;;16.44;100.00
967;BME280;56108;48.730;9.304;2023-07-13T03:45:11;97581.69;;;16.55;100.00
967;BME280;56108;48.730;9.304;2023-07-13T03:47:19;97581.81;;;16.63;100.00
967;BME280;56108;48.730;9.304;2023-07-13T03:49:27;97588.88;;;16.74;100.00
967;BME280;56108;48.730;9.304;2023-07-13T03:51:36;97585.50;;;16.82;100.00
967;BME280;56108;48.730;9.304;2023-07-13T03:53:47;97588.44;;;16.88;100.00
967;BME280;56108;48.730;9.304;2023-07-13T03:55:57;97586.44;;;16.90;100.00
967;BME280;56108;48.730;9.304;2023-07-13T03:58:24;97590.53;;;16.94;100.00
967;BME280;56108;48.730;9.304;2023-07-13T04:00:37;97594.47;;;17.00;98.65
967;BME280;56108;48.730;9.304;2023-07-13T04:02:46;97591.47;;;17.13;99.00
967;BME280;56108;48.730;9.304;2023-07-13T04:04:54;97587.44;;;17.27;100.00
967;BME280;56108;48.730;9.304;2023-07-13T04:07:03;97591.63;;;17.39;98.58
967;BME280;56108;48.730;9.304;2023-07-13T04:09:15;97590.38;;;17.61;94.04
967;BME280;56108;48.730;9.304;2023-07-13T04:11:27;97590.66;;;17.58;94.64
967;BME280;56108;48.730;9.304;2023-07-13T04:13:37;97591.00;;;17.55;92.58
967;BME280;56108;48.730;9.304;2023-07-13T04:15:45;97592.13;;;17.52;94.35
967;BME280;56108;48.730;9.304;2023-07-13T04:17:53;97599.25;;;17.71;91.62
967;BME280;56108;48.730;9.304;2023-07-13T04:20:03;97597.66;;;17.78;89.86
967;BME280;56108;48.730;9.304;2023-07-13T04:22:12;97601.38;;;17.95;88.52
967;BME280;56108;48.730;9.304;2023-07-13T04:24:22;97606.69;;;18.05;85.15
967;BME280;56108;48.730;9.304;2023-07-13T04:26:31;97608.75;;;18.11;85.60
967;BME280;56108;48.730;9.304;2023-07-13T04:28:42;97610.09;;;18.07;85.36
967;BME280;56108;48.730;9.304;2023-07-13T04:30:51;97609.09;;;18.08;85.83
967;BME280;56108;48.730;9.304;2023-07-13T04:33:00;97613.84;;;18.14;84.17
967;BME280;56108;48.730;9.304;2023-07-13T04:35:09;97618.47;;;18.21;83.51
967;BME280;56108;48.730;9.304;2023-07-13T04:37:20;97623.16;;;18.19;83.32
967;BME280;56108;48.730;9.304;2023-07-13T04:39:30;97615.47;;;18.24;83.19
967;BME280;56108;48.730;9.304;2023-07-13T04:41:40;97618.63;;;18.20;83.16
967;BME280;56108;48.730;9.304;2023-07-13T04:43:48;97618.22;;;18.15;83.68
967;BME280;56108;48.730;9.304;2023-07-13T04:46:03;97618.22;;;18.15;83.08
967;BME280;56108;48.730;9.304;2023-07-13T04:48:14;97618.56;;;18.12;83.40
967;BME280;56108;48.730;9.304;2023-07-13T04:50:24;97619.91;;;18.16;84.67
967;BME280;56108;48.730;9.304;2023-07-13T04:52:32;97617.63;;;18.21;82.57
967;BME280;56108;48.730;9.304;2023-07-13T04:54:43;97611.84;;;18.16;81.59
967;BME280;56108;48.730;9.304;2023-07-13T04:56:52;97621.47;;;18.18;83.41
967;BME280;56108;48.730;9.304;2023-07-13T04:59:03;97611.84;;;18.16;83.50
967;BME280;56108;48.730;9.304;2023-07-13T05:01:11;97617.78;;;18.19;83.63
967;BME280;56108;48.730;9.304;2023-07-13T05:03:20;97618.16;;;18.24;82.95
967;BME280;56108;48.730;9.304;2023-07-13T05:05:28;97627.41;;;18.40;81.73
967;BME280;56108;48.730;9.304;2023-07-13T05:07:36;97624.91;;;18.46;79.75
967;BME280;56108;48.730;9.304;2023-07-13T05:09:47;97627.16;;;18.51;80.15
967;BME280;56108;48.730;9.304;2023-07-13T05:14:18;97620.06;;;18.68;78.11
967;BME280;56108;48.730;9.304;2023-07-13T05:16:26;97616.22;;;18.70;78.10
967;BME280;56108;48.730;9.304;2023-07-13T05:18:35;97624.38;;;18.78;77.80
967;BME280;56108;48.730;9.304;2023-07-13T05:20:47;97620.44;;;18.91;76.96
967;BME280;56108;48.730;9.304;2023-07-13T05:23:03;97635.06;;;19.14;77.03
967;BME280;56108;48.730;9.304;2023-07-13T05:25:14;97628.44;;;19.35;75.74
967;BME280;56108;48.730;9.304;2023-07-13T05:27:22;97631.56;;;19.56;75.59
967;BME280;56108;48.730;9.304;2023-07-13T05:29:31;97635.41;;;19.79;74.25
967;BME280;56108;48.730;9.304;2023-07-13T05:31:41;97634.13;;;20.08;73.31
967;BME280;56108;48.730;9.304;2023-07-13T05:33:51;97638.25;;;20.20;72.02
967;BME280;56108;48.730;9.304;2023-07-13T05:35:56;97648.41;;;20.51;69.59
967;BME280;56108;48.730;9.304;2023-07-13T05:38:05;97660.59;;;20.71;68.51
967;BME280;56108;48.730;9.304;2023-07-13T05:40:17;97653.00;;;20.75;68.33
967;BME280;56108;48.730;9.304;2023-07-13T05:42:25;97664.00;;;20.73;67.13
967;BME280;56108;48.730;9.304;2023-07-13T05:44:36;97663.66;;;20.60;67.41
967;BME280;56108;48.730;9.304;2023-07-13T05:46:43;97662.81;;;20.59;67.69
967;BME280;56108;48.730;9.304;2023-07-13T05:48:51;97666.84;;;20.55;65.68
967;BME280;56108;48.730;9.304;2023-07-13T05:51:02;97670.84;;;20.27;67.14
967;BME280;56108;48.730;9.304;2023-07-13T05:53:11;97669.44;;;20.15;66.11
967;BME280;56108;48.730;9.304;2023-07-13T05:55:20;97662.34;;;20.05;66.67
967;BME280;56108;48.730;9.304;2023-07-13T05:57:28;97660.31;;;20.07;69.18
967;BME280;56108;48.730;9.304;2023-07-13T05:59:38;97662.69;;;20.11;68.96
967;BME280;56108;48.730;9.304;2023-07-13T06:01:46;97657.28;;;20.11;68.84
967;BME280;56108;48.730;9.304;2023-07-13T06:03:54;97665.06;;;20.14;68.71
967;BME280;56108;48.730;9.304;2023-07-13T06:06:02;97668.97;;;20.27;65.96
967;BME280;56108;48.730;9.304;2023-07-13T06:08:11;97664.25;;;20.21;68.62
967;BME280;56108;48.730;9.304;2023-07-13T06:10:19;97676.75;;;20.22;64.65
967;BME280;56108;48.730;9.304;2023-07-13T06:12:27;97680.94;;;20.17;65.47
967;BME280;56108;48.730;9.304;2023-07-13T06:14:36;97687.91;;;20.27;63.91
967;BME280;56108;48.730;9.304;2023-07-13T06:16:44;97704.38;;;21.24;59.38
967;BME280;56108;48.730;9.304;2023-07-13T06:18:52;97716.88;;;23.21;52.85
967;BME280;56108;48.730;9.304;2023-07-13T06:20:58;97744.81;;;25.42;45.77
967;BME280;56108;48.730;9.304;2023-07-13T06:23:07;97768.69;;;27.26;40.16
967;BME280;56108;48.730;9.304;2023-07-13T06:25:15;97779.44;;;29.17;35.56
967;BME280;56108;48.730;9.304;2023-07-13T06:27:26;97789.53;;;29.80;33.92
967;BME280;56108;48.730;9.304;2023-07-13T06:29:35;97788.28;;;30.01;33.68
967;BME280;56108;48.730;9.304;2023-07-13T06:31:42;97799.75;;;29.98;31.76
967;BME280;56108;48.730;9.304;2023-07-13T06:33:50;97801.69;;;30.15;32.71
967;BME280;56108;48.730;9.304;2023-07-13T06:35:59;97810.19;;;31.36;30.95
967;BME280;56108;48.730;9.304;2023-07-13T06:38:07;97813.72;;;31.43;30.28
967;BME280;56108;48.730;9.304;2023-07-13T06:40:15;97808.13;;;31.61;30.87
967;BME280;56108;48.730;9.304;2023-07-13T06:42:31;97811.59;;;30.78;31.52
967;BME280;56108;48.730;9.304;2023-07-13T06:44:39;97777.03;;;29.34;33.75
967;BME280;56108;48.730;9.304;2023-07-13T06:46:47;97775.19;;;30.64;32.71
967;BME280;56108;48.730;9.304;2023-07-13T06:48:55;97780.47;;;31.44;31.46
967;BME280;56108;48.730;9.304;2023-07-13T06:51:04;97784.78;;;30.92;31.55
967;BME280;56108;48.730;9.304;2023-07-13T06:53:12;97779.72;;;31.91;30.48
967;BME280;56108;48.730;9.304;2023-07-13T06:55:21;97782.22;;;31.81;30.08
967;BME280;56108;48.730;9.304;2023-07-13T06:57:31;97755.06;;;32.08;28.57
967;BME280;56108;48.730;9.304;2023-07-13T06:59:40;97743.47;;;33.55;26.73
967;BME280;56108;48.730;9.304;2023-07-13T07:01:48;97741.88;;;33.59;27.53
967;BME280;56108;48.730;9.304;2023-07-13T07:03:56;97740.47;;;34.29;26.36
967;BME280;56108;48.730;9.304;2023-07-13T07:06:12;97743.34;;;35.00;25.80
967;BME280;56108;48.730;9.304;2023-07-13T07:08:22;97747.72;;;34.74;26.09
967;BME280;56108;48.730;9.304;2023-07-13T07:10:31;97739.16;;;34.75;26.57
967;BME280;56108;48.730;9.304;2023-07-13T07:12:39;97747.72;;;35.23;25.15
967;BME280;56108;48.730;9.304;2023-07-13T07:14:48;97752.91;;;34.70;25.51
967;BME280;56108;48.730;9.304;2023-07-13T07:16:56;97743.53;;;34.71;25.72
967;BME280;56108;48.730;9.304;2023-07-13T07:19:06;97739.31;;;34.64;24.21
967;BME280;56108;48.730;9.304;2023-07-13T07:21:14;97737.81;;;34.78;24.59
967;BME280;56108;48.730;9.304;2023-07-13T07:23:22;97734.22;;;35.26;25.65
967;BME280;56108;48.730;9.304;2023-07-13T07:25:30;97736.66;;;34.96;24.17
967;BME280;56108;48.730;9.304;2023-07-13T07:27:45;97739.00;;;34.87;23.56
967;BME280;56108;48.730;9.304;2023-07-13T07:29:56;97736.72;;;34.18;26.23
967;BME280;56108;48.730;9.304;2023-07-13T07:32:08;97750.38;;;35.13;24.57
967;BME280;56108;48.730;9.304;2023-07-13T07:34:36;97745.78;;;35.23;23.57
967;BME280;56108;48.730;9.304;2023-07-13T07:36:44;97752.69;;;35.21;23.07
967;BME280;56108;48.730;9.304;2023-07-13T07:38:55;97745.50;;;35.47;21.98
967;BME280;56108;48.730;9.304;2023-07-13T07:41:04;97743.88;;;34.14;23.80
967;BME280;56108;48.730;9.304;2023-07-13T07:43:18;97745.56;;;35.03;24.03
967;BME280;56108;48.730;9.304;2023-07-13T07:45:26;97754.63;;;35.79;22.97
967;BME280;56108;48.730;9.304;2023-07-13T07:47:34;97743.53;;;34.93;23.44
967;BME280;56108;48.730;9.304;2023-07-13T07:49:43;97752.34;;;34.46;23.31
967;BME280;56108;48.730;9.304;2023-07-13T07:51:51;97741.91;;;34.75;24.62
967;BME280;56108;48.730;9.304;2023-07-13T07:53:59;97743.69;;;34.43;24.67
967;BME280;56108;48.730;9.304;2023-07-13T07:56:10;97749.16;;;35.52;22.31
967;BME280;56108;48.730;9.304;2023-07-13T07:58:26;97748.38;;;35.30;23.54
967;BME280;56108;48.730;9.304;2023-07-13T08:00:37;97747.66;;;36.04;22.51
967;BME280;56108;48.730;9.304;2023-07-13T08:02:50;97755.84;;;35.57;20.80
967;BME280;56108;48.730;9.304;2023-07-13T08:05:01;97752.16;;;34.75;20.82
967;BME280;56108;48.730;9.304;2023-07-13T08:07:12;97742.47;;;34.72;22.35
967;BME280;56108;48.730;9.304;2023-07-13T08:09:20;97750.47;;;34.74;21.95
967;BME280;56108;48.730;9.304;2023-07-13T08:11:29;97749.03;;;32.58;22.93
967;BME280;56108;48.730;9.304;2023-07-13T08:13:43;97754.19;;;32.54;22.83
967;BME280;56108;48.730;9.304;2023-07-13T08:15:51;97743.47;;;31.29;24.42
967;BME280;56108;48.730;9.304;2023-07-13T08:17:59;97748.47;;;31.32;26.84
967;BME280;56108;48.730;9.304;2023-07-13T08:20:09;97744.28;;;30.51;26.30
967;BME280;56108;48.730;9.304;2023-07-13T08:22:17;97742.22;;;30.64;27.17
967;BME280;56108;48.730;9.304;2023-07-13T08:24:25;97746.56;;;30.17;26.18
967;BME280;56108;48.730;9.304;2023-07-13T08:26:34;97743.50;;;29.32;27.83
967;BME280;56108;48.730;9.304;2023-07-13T08:28:42;97743.44;;;29.14;28.59
967;BME280;56108;48.730;9.304;2023-07-13T08:30:50;97745.63;;;28.98;28.25
967;BME280;56108;48.730;9.304;2023-07-13T08:32:58;97739.13;;;29.24;29.47
967;BME280;56108;48.730;9.304;2023-07-13T08:35:07;97740.22;;;28.33;29.45
967;BME280;56108;48.730;9.304;2023-07-13T08:37:15;97733.25;;;28.31;29.80
967;BME280;56108;48.730;9.304;2023-07-13T08:39:25;97732.34;;;27.26;30.86
967;BME280;56108;48.730;9.304;2023-07-13T08:41:36;97732.75;;;27.23;32.70
967;BME280;56108;48.730;9.304;2023-07-13T08:43:48;97736.53;;;27.42;32.98
967;BME280;56108;48.730;9.304;2023-07-13T08:46:05;97732.84;;;26.88;33.65
967;BME280;56108;48.730;9.304;2023-07-13T08:48:19;97727.00;;;26.98;34.42
967;BME280;56108;48.730;9.304;2023-07-13T08:50:33;97737.09;;;26.97;33.89
967;BME280;56108;48.730;9.304;2023-07-13T08:53:03;97730.28;;;26.19;33.46
967;BME280;56108;48.730;9.304;2023-07-13T08:55:15;97726.94;;;26.65;36.27
967;BME280;56108;48.730;9.304;2023-07-13T08:57:28;97734.66;;;26.61;35.34
967;BME280;56108;48.730;9.304;2023-07-13T08:59:43;97734.88;;;26.53;34.19
967;BME280;56108;48.730;9.304;2023-07-13T09:02:05;97730.56;;;26.92;33.60
967;BME280;56108;48.730;9.304;2023-07-13T09:04:19;97729.81;;;27.57;32.62
967;BME280;56108;48.730;9.304;2023-07-13T09:06:34;97729.56;;;27.99;31.05
967;BME280;56108;48.730;9.304;2023-07-13T09:08:49;97741.72;;;28.16;30.26
967;BME280;56108;48.730;9.304;2023-07-13T09:11:08;97742.59;;;30.31;29.67
967;BME280;56108;48.730;9.304;2023-07-13T09:13:26;97743.66;;;31.69;27.18
967;BME280;56108;48.730;9.304;2023-07-13T09:15:43;97754.34;;;33.16;24.81
967;BME280;56108;48.730;9.304;2023-07-13T09:17:54;97758.06;;;33.39;23.76
967;BME280;56108;48.730;9.304;2023-07-13T09:20:10;97750.06;;;33.54;23.53
967;BME280;56108;48.730;9.304;2023-07-13T09:22:23;97755.19;;;34.51;22.35
967;BME280;56108;48.730;9.304;2023-07-13T09:24:38;97753.97;;;35.13;23.17
967;BME280;56108;48.730;9.304;2023-07-13T09:26:47;97761.59;;;36.19;21.55
967;BME280;56108;48.730;9.304;2023-07-13T09:28:59;97756.78;;;36.04;21.49
967;BME280;56108;48.730;9.304;2023-07-13T09:31:16;97758.91;;;36.29;21.87
967;BME280;56108;48.730;9.304;2023-07-13T09:33:27;97751.56;;;33.45;22.91
967;BME280;56108;48.730;9.304;2023-07-13T09:35:37;97746.81;;;31.31;26.45
967;BME280;56108;48.730;9.304;2023-07-13T09:37:46;97752.84;;;31.63;25.89
967;BME280;56108;48.730;9.304;2023-07-13T09:39:55;97747.97;;;29.58;28.20
967;BME280;56108;48.730;9.304;2023-07-13T09:42:12;97740.34;;;30.28;27.23
967;BME280;56108;48.730;9.304;2023-07-13T09:44:28;97738.19;;;30.30;29.12
967;BME280;56108;48.730;9.304;2023-07-13T09:46:45;97737.78;;;30.27;29.12
967;BME280;56108;48.730;9.304;2023-07-13T09:48:55;97737.16;;;31.10;27.27
967;BME280;56108;48.730;9.304;2023-07-13T09:51:13;97738.56;;;31.96;25.91
967;BME280;56108;48.730;9.304;2023-07-13T09:53:21;97740.94;;;31.81;27.21
967;BME280;56108;48.730;9.304;2023-07-13T09:55:32;97728.94;;;30.43;27.80
967;BME280;56108;48.730;9.304;2023-07-13T09:57:47;97737.91;;;28.82;30.37
967;BME280;56108;48.730;9.304;2023-07-13T09:59:56;97724.56;;;27.82;33.27
967;BME280;56108;48.730;9.304;2023-07-13T10:02:23;97737.28;;;26.89;34.81
967;BME280;56108;48.730;9.304;2023-07-13T10:04:34;97728.34;;;26.54;35.23
967;BME280;56108;48.730;9.304;2023-07-13T10:06:42;97731.72;;;26.56;35.09
967;BME280;56108;48.730;9.304;2023-07-13T10:08:50;97732.66;;;26.35;34.36
967;BME280;56108;48.730;9.304;2023-07-13T10:11:00;97732.66;;;26.35;35.62
967;BME280;56108;48.730;9.304;2023-07-13T10:13:27;97727.94;;;26.57;33.88
967;BME280;56108;48.730;9.304;2023-07-13T10:15:40;97724.75;;;27.68;33.64
967;BME280;56108;48.730;9.304;2023-07-13T10:17:52;97730.56;;;29.14;31.14
967;BME280;56108;48.730;9.304;2023-07-13T10:20:04;97745.06;;;29.96;30.03
967;BME280;56108;48.730;9.304;2023-07-13T10:22:23;97755.09;;;29.66;29.14
967;BME280;56108;48.730;9.304;2023-07-13T10:24:37;97750.97;;;28.80;30.79
967;BME280;56108;48.730;9.304;2023-07-13T10:26:51;97742.75;;;28.80;29.79
967;BME280;56108;48.730;9.304;2023-07-13T10:29:05;97742.31;;;28.83;32.08
967;BME280;56108;48.730;9.304;2023-07-13T10:31:21;97740.28;;;29.67;31.11
967;BME280;56108;48.730;9.304;2023-07-13T10:33:33;97739.38;;;30.53;30.00
967;BME280;56108;48.730;9.304;2023-07-13T10:35:43;97736.59;;;30.41;29.99
967;BME280;56108;48.730;9.304;2023-07-13T10:37:57;97742.81;;;29.68;29.09
967;BME280;56108;48.730;9.304;2023-07-13T10:40:14;97744.03;;;29.72;30.59
967;BME280;56108;48.730;9.304;2023-07-13T10:42:29;97738.50;;;29.22;28.45
967;BME280;56108;48.730;9.304;2023-07-13T10:44:40;97738.50;;;29.54;31.18
967;BME280;56108;48.730;9.304;2023-07-13T10:46:49;97735.84;;;29.41;31.98
967;BME280;56108;48.730;9.304;2023-07-13T10:49:02;97733.75;;;29.86;29.84
967;BME280;56108;48.730;9.304;2023-07-13T10:51:14;97732.22;;;29.97;30.96
967;BME280;56108;48.730;9.304;2023-07-13T10:53:28;97731.31;;;29.78;28.26
967;BME280;56108;48.730;9.304;2023-07-13T10:55:39;97731.56;;;29.76;29.18
967;BME280;56108;48.730;9.304;2023-07-13T10:57:48;97730.19;;;30.29;29.40
967;BME280;56108;48.730;9.304;2023-07-13T11:00:13;97729.22;;;30.53;28.30
967;BME280;56108;48.730;9.304;2023-07-13T11:02:25;97723.00;;;30.28;28.11
967;BME280;56108;48.730;9.304;2023-07-13T11:04:44;97730.69;;;29.51;29.64
967;BME280;56108;48.730;9.304;2023-07-13T11:06:57;97716.56;;;27.28;32.58
967;BME280;56108;48.730;9.304;2023-07-13T11:09:19;97714.41;;;27.96;31.52
967;BME280;56108;48.730;9.304;2023-07-13T11:11:38;97705.31;;;26.22;33.48
967;BME280;56108;48.730;9.304;2023-07-13T11:13:57;97707.09;;;25.39;34.20
967;BME280;56108;48.730;9.304;2023-07-13T11:16:21;97693.00;;;26.33;36.75
967;BME280;56108;48.730;9.304;2023-07-13T11:18:47;97698.66;;;26.38;33.62
967;BME280;56108;48.730;9.304;2023-07-13T11:21:17;97702.38;;;26.71;33.25
967;BME280;56108;48.730;9.304;2023-07-13T11:23:42;97686.81;;;28.04;35.41
967;BME280;56108;48.730;9.304;2023-07-13T11:25:52;97701.75;;;28.02;32.81
967;BME280;56108;48.730;9.304;2023-07-13T11:28:16;97699.94;;;28.47;35.07
967;BME280;56108;48.730;9.304;2023-07-13T11:30:32;97707.72;;;28.89;32.24
967;BME280;56108;48.730;9.304;2023-07-13T11:32:43;97713.09;;;29.08;30.80
967;BME280;56108;48.730;9.304;2023-07-13T11:34:51;97694.63;;;29.29;30.66
967;BME280;56108;48.730;9.304;2023-07-13T11:37:02;97706.22;;;29.56;30.34
967;BME280;56108;48.730;9.304;2023-07-13T11:39:17;97699.06;;;29.55;29.13
967;BME280;56108;48.730;9.304;2023-07-13T11:41:30;97688.19;;;29.67;29.32
967;BME280;56108;48.730;9.304;2023-07-13T11:43:40;97694.03;;;29.70;30.60
967;BME280;56108;48.730;9.304;2023-07-13T11:45:48;97686.13;;;29.80;30.31
967;BME280;56108;48.730;9.304;2023-07-13T11:47:56;97698.69;;;29.45;31.20
967;BME280;56108;48.730;9.304;2023-07-13T11:50:16;97694.75;;;29.09;30.57
967;BME280;56108;48.730;9.304;2023-07-13T11:52:32;97691.72;;;28.85;31.99
967;BME280;56108;48.730;9.304;2023-07-13T11:54:47;97692.59;;;28.79;31.55
967;BME280;56108;48.730;9.304;2023-07-13T11:57:02;97693.53;;;29.05;32.03